sensor_id;sensor_type;location;lat;lon;timestamp;temperature;humidity
18177;DHT22;9213;50.858;3.964;2023-04-03T00:02:07;7.50;56.80
18177;DHT22;9213;50.858;3.964;2023-04-03T00:04:34;7.50;56.80
18177;DHT22;9213;50.858;3.964;2023-04-03T00:07:01;7.50;56.80
18177;DHT22;9213;50.858;3.964;2023-04-03T00:09:29;7.40;56.70
18177;DHT22;9213;50.858;3.964;2023-04-03T00:11:56;7.40;56.70
18177;DHT22;9213;50.858;3.964;2023-04-03T00:14:25;7.40;56.70
18177;DHT22;9213;50.858;3.964;2023-04-03T00:16:53;7.40;56.80
18177;DHT22;9213;50.858;3.964;2023-04-03T00:19:20;7.30;56.80
18177;DHT22;9213;50.858;3.964;2023-04-03T00:21:47;7.30;56.90
18177;DHT22;9213;50.858;3.964;2023-04-03T00:24:14;7.30;56.90
18177;DHT22;9213;50.858;3.964;2023-04-03T00:26:41;7.20;56.80
18177;DHT22;9213;50.858;3.964;2023-04-03T00:29:07;7.20;56.90
18177;DHT22;9213;50.858;3.964;2023-04-03T00:31:36;7.20;56.90
18177;DHT22;9213;50.858;3.964;2023-04-03T00:34:03;7.20;56.90
18177;DHT22;9213;50.858;3.964;2023-04-03T00:36:30;7.20;56.90
18177;DHT22;9213;50.858;3.964;2023-04-03T00:38:57;7.20;57.00
18177;DHT22;9213;50.858;3.964;2023-04-03T00:41:24;7.20;57.00
18177;DHT22;9213;50.858;3.964;2023-04-03T00:43:51;7.20;57.00
18177;DHT22;9213;50.858;3.964;2023-04-03T00:46:18;7.20;57.00
18177;DHT22;9213;50.858;3.964;2023-04-03T00:48:48;7.20;57.00
18177;DHT22;9213;50.858;3.964;2023-04-03T00:51:19;7.20;56.90
18177;DHT22;9213;50.858;3.964;2023-04-03T00:53:49;7.20;56.90
18177;DHT22;9213;50.858;3.964;2023-04-03T00:56:18;7.20;56.80
18177;DHT22;9213;50.858;3.964;2023-04-03T00:58:49;7.20;56.70
18177;DHT22;9213;50.858;3.964;2023-04-03T01:01:21;7.20;56.70
18177;DHT22;9213;50.858;3.964;2023-04-03T01:03:50;7.20;57.20
18177;DHT22;9213;50.858;3.964;2023-04-03T01:06:21;7.20;56.50
18177;DHT22;9213;50.858;3.964;2023-04-03T01:08:49;7.20;56.60
18177;DHT22;9213;50.858;3.964;2023-04-03T01:11:17;7.20;56.60
18177;DHT22;9213;50.858;3.964;2023-04-03T01:13:44;7.20;56.60
18177;DHT22;9213;50.858;3.964;2023-04-03T01:16:11;7.20;56.50
18177;DHT22;9213;50.858;3.964;2023-04-03T01:18:39;7.20;56.50
18177;DHT22;9213;50.858;3.964;2023-04-03T01:21:49;7.20;56.50
18177;DHT22;9213;50.858;3.964;2023-04-03T01:24:36;7.20;56.50
18177;DHT22;9213;50.858;3.964;2023-04-03T01:27:06;7.20;56.40
18177;DHT22;9213;50.858;3.964;2023-04-03T01:29:34;7.10;56.40
18177;DHT22;9213;50.858;3.964;2023-04-03T01:32:03;7.10;56.50
18177;DHT22;9213;50.858;3.964;2023-04-03T01:34:31;7.10;56.50
18177;DHT22;9213;50.858;3.964;2023-04-03T01:36:58;7.00;56.30
18177;DHT22;9213;50.858;3.964;2023-04-03T01:39:25;7.10;56.40
18177;DHT22;9213;50.858;3.964;2023-04-03T01:41:52;7.00;56.20
18177;DHT22;9213;50.858;3.964;2023-04-03T01:44:19;7.00;56.20
18177;DHT22;9213;50.858;3.964;2023-04-03T01:46:46;7.00;56.20
18177;DHT22;9213;50.858;3.964;2023-04-03T01:49:14;7.00;56.20
18177;DHT22;9213;50.858;3.964;2023-04-03T01:51:41;7.00;56.20
18177;DHT22;9213;50.858;3.964;2023-04-03T01:54:08;7.00;56.20
18177;DHT22;9213;50.858;3.964;2023-04-03T01:56:35;7.00;56.10
18177;DHT22;9213;50.858;3.964;2023-04-03T01:59:03;7.00;56.00
18177;DHT22;9213;50.858;3.964;2023-04-03T02:01:30;7.00;56.00
18177;DHT22;9213;50.858;3.964;2023-04-03T02:03:58;7.00;56.10
18177;DHT22;9213;50.858;3.964;2023-04-03T02:06:26;7.00;56.10
18177;DHT22;9213;50.858;3.964;2023-04-03T02:08:53;7.00;56.10
18177;DHT22;9213;50.858;3.964;2023-04-03T02:11:20;6.90;56.00
18177;DHT22;9213;50.858;3.964;2023-04-03T02:13:47;6.90;56.10
18177;DHT22;9213;50.858;3.964;2023-04-03T02:16:14;6.90;56.00
18177;DHT22;9213;50.858;3.964;2023-04-03T02:18:42;6.90;56.00
18177;DHT22;9213;50.858;3.964;2023-04-03T02:21:09;6.90;56.00
18177;DHT22;9213;50.858;3.964;2023-04-03T02:23:37;6.90;55.90
18177;DHT22;9213;50.858;3.964;2023-04-03T02:26:09;6.90;56.60
18177;DHT22;9213;50.858;3.964;2023-04-03T02:28:37;6.80;55.80
18177;DHT22;9213;50.858;3.964;2023-04-03T02:31:05;6.80;55.80
18177;DHT22;9213;50.858;3.964;2023-04-03T02:33:33;6.80;55.80
18177;DHT22;9213;50.858;3.964;2023-04-03T02:36:02;6.80;55.90
18177;DHT22;9213;50.858;3.964;2023-04-03T02:38:29;6.70;56.00
18177;DHT22;9213;50.858;3.964;2023-04-03T02:41:01;6.70;56.00
18177;DHT22;9213;50.858;3.964;2023-04-03T02:43:28;6.70;56.10
18177;DHT22;9213;50.858;3.964;2023-04-03T02:45:55;6.70;56.10
18177;DHT22;9213;50.858;3.964;2023-04-03T02:48:22;6.70;56.10
18177;DHT22;9213;50.858;3.964;2023-04-03T02:50:50;6.60;56.00
18177;DHT22;9213;50.858;3.964;2023-04-03T02:53:17;6.60;56.00
18177;DHT22;9213;50.858;3.964;2023-04-03T02:55:44;6.60;56.00
18177;DHT22;9213;50.858;3.964;2023-04-03T02:58:13;6.60;56.00
18177;DHT22;9213;50.858;3.964;2023-04-03T03:00:40;6.60;56.00
18177;DHT22;9213;50.858;3.964;2023-04-03T03:03:07;6.60;56.10
18177;DHT22;9213;50.858;3.964;2023-04-03T03:05:34;6.60;56.10
18177;DHT22;9213;50.858;3.964;2023-04-03T03:08:01;6.60;56.10
18177;DHT22;9213;50.858;3.964;2023-04-03T03:10:28;6.60;56.00
18177;DHT22;9213;50.858;3.964;2023-04-03T03:12:55;6.50;56.00
18177;DHT22;9213;50.858;3.964;2023-04-03T03:15:24;6.50;56.00
18177;DHT22;9213;50.858;3.964;2023-04-03T03:17:51;6.60;56.00
18177;DHT22;9213;50.858;3.964;2023-04-03T03:20:18;6.50;56.00
18177;DHT22;9213;50.858;3.964;2023-04-03T03:22:46;6.50;56.10
18177;DHT22;9213;50.858;3.964;2023-04-03T03:25:13;6.50;56.10
18177;DHT22;9213;50.858;3.964;2023-04-03T03:27:40;6.50;56.10
18177;DHT22;9213;50.858;3.964;2023-04-03T03:30:08;6.50;56.00
18177;DHT22;9213;50.858;3.964;2023-04-03T03:32:36;6.50;56.10
18177;DHT22;9213;50.858;3.964;2023-04-03T03:35:04;6.50;56.00
18177;DHT22;9213;50.858;3.964;2023-04-03T03:37:31;6.40;55.90
18177;DHT22;9213;50.858;3.964;2023-04-03T03:39:58;6.40;55.90
18177;DHT22;9213;50.858;3.964;2023-04-03T03:42:25;6.40;55.90
18177;DHT22;9213;50.858;3.964;2023-04-03T03:44:52;6.40;55.90
18177;DHT22;9213;50.858;3.964;2023-04-03T03:47:19;6.40;56.00
18177;DHT22;9213;50.858;3.964;2023-04-03T03:49:47;6.30;56.00
18177;DHT22;9213;50.858;3.964;2023-04-03T03:52:14;6.30;56.10
18177;DHT22;9213;50.858;3.964;2023-04-03T03:54:41;6.30;56.10
18177;DHT22;9213;50.858;3.964;2023-04-03T03:57:08;6.30;56.10
18177;DHT22;9213;50.858;3.964;2023-04-03T03:59:35;6.30;56.10
18177;DHT22;9213;50.858;3.964;2023-04-03T04:02:02;6.20;56.00
18177;DHT22;9213;50.858;3.964;2023-04-03T04:04:29;6.20;56.10
18177;DHT22;9213;50.858;3.964;2023-04-03T04:06:57;6.20;56.10
18177;DHT22;9213;50.858;3.964;2023-04-03T04:09:26;6.10;56.10
18177;DHT22;9213;50.858;3.964;2023-04-03T04:11:53;6.10;56.10
18177;DHT22;9213;50.858;3.964;2023-04-03T04:14:20;6.10;56.20
18177;DHT22;9213;50.858;3.964;2023-04-03T04:16:47;6.10;56.20
18177;DHT22;9213;50.858;3.964;2023-04-03T04:19:14;6.10;56.30
18177;DHT22;9213;50.858;3.964;2023-04-03T04:21:41;6.00;56.20
18177;DHT22;9213;50.858;3.964;2023-04-03T04:24:10;6.00;56.20
18177;DHT22;9213;50.858;3.964;2023-04-03T04:26:37;6.00;56.30
18177;DHT22;9213;50.858;3.964;2023-04-03T04:29:04;6.00;56.40
18177;DHT22;9213;50.858;3.964;2023-04-03T04:31:31;6.00;56.50
18177;DHT22;9213;50.858;3.964;2023-04-03T04:33:58;6.00;56.50
18177;DHT22;9213;50.858;3.964;2023-04-03T04:36:24;6.00;56.50
18177;DHT22;9213;50.858;3.964;2023-04-03T04:38:51;6.00;56.50
18177;DHT22;9213;50.858;3.964;2023-04-03T04:41:20;6.00;56.50
18177;DHT22;9213;50.858;3.964;2023-04-03T04:43:48;6.00;56.60
18177;DHT22;9213;50.858;3.964;2023-04-03T04:46:15;5.90;56.60
18177;DHT22;9213;50.858;3.964;2023-04-03T04:48:43;5.90;56.60
18177;DHT22;9213;50.858;3.964;2023-04-03T04:51:11;5.90;56.60
18177;DHT22;9213;50.858;3.964;2023-04-03T04:53:38;5.90;56.60
18177;DHT22;9213;50.858;3.964;2023-04-03T04:56:05;5.90;56.70
18177;DHT22;9213;50.858;3.964;2023-04-03T04:58:33;5.90;56.70
18177;DHT22;9213;50.858;3.964;2023-04-03T05:01:00;5.90;56.80
18177;DHT22;9213;50.858;3.964;2023-04-03T05:03:28;5.90;56.70
18177;DHT22;9213;50.858;3.964;2023-04-03T05:05:55;5.80;56.60
18177;DHT22;9213;50.858;3.964;2023-04-03T05:08:22;5.80;56.60
18177;DHT22;9213;50.858;3.964;2023-04-03T05:10:49;5.80;56.70
18177;DHT22;9213;50.858;3.964;2023-04-03T05:13:16;5.80;56.70
18177;DHT22;9213;50.858;3.964;2023-04-03T05:15:45;5.80;56.70
18177;DHT22;9213;50.858;3.964;2023-04-03T05:18:12;5.80;56.70
18177;DHT22;9213;50.858;3.964;2023-04-03T05:20:39;5.80;56.70
18177;DHT22;9213;50.858;3.964;2023-04-03T05:23:06;5.80;56.80
18177;DHT22;9213;50.858;3.964;2023-04-03T05:25:33;5.80;56.80
18177;DHT22;9213;50.858;3.964;2023-04-03T05:28:00;5.80;56.90
18177;DHT22;9213;50.858;3.964;2023-04-03T05:30:27;5.90;57.10
18177;DHT22;9213;50.858;3.964;2023-04-03T05:32:56;5.90;57.10
18177;DHT22;9213;50.858;3.964;2023-04-03T05:35:22;6.00;57.20
18177;DHT22;9213;50.858;3.964;2023-04-03T05:37:49;6.10;57.50
18177;DHT22;9213;50.858;3.964;2023-04-03T05:40:17;6.30;57.20
18177;DHT22;9213;50.858;3.964;2023-04-03T05:42:44;6.40;57.10
18177;DHT22;9213;50.858;3.964;2023-04-03T05:45:11;6.50;57.20
18177;DHT22;9213;50.858;3.964;2023-04-03T05:47:38;6.60;57.00
18177;DHT22;9213;50.858;3.964;2023-04-03T05:50:07;6.80;56.70
18177;DHT22;9213;50.858;3.964;2023-04-03T05:52:36;6.90;56.20
18177;DHT22;9213;50.858;3.964;2023-04-03T05:55:05;7.00;55.80
18177;DHT22;9213;50.858;3.964;2023-04-03T05:57:32;7.00;55.80
18177;DHT22;9213;50.858;3.964;2023-04-03T05:59:59;7.10;55.90
18177;DHT22;9213;50.858;3.964;2023-04-03T06:02:26;7.30;55.80
18177;DHT22;9213;50.858;3.964;2023-04-03T06:04:53;7.40;55.60
18177;DHT22;9213;50.858;3.964;2023-04-03T06:07:23;7.50;55.20
18177;DHT22;9213;50.858;3.964;2023-04-03T06:09:54;7.60;54.70
18177;DHT22;9213;50.858;3.964;2023-04-03T06:12:22;7.70;54.60
18177;DHT22;9213;50.858;3.964;2023-04-03T06:14:49;7.80;54.30
18177;DHT22;9213;50.858;3.964;2023-04-03T06:17:17;7.80;54.20
18177;DHT22;9213;50.858;3.964;2023-04-03T06:19:44;8.00;54.10
18177;DHT22;9213;50.858;3.964;2023-04-03T06:22:12;8.00;54.10
18177;DHT22;9213;50.858;3.964;2023-04-03T06:24:40;8.20;54.30
18177;DHT22;9213;50.858;3.964;2023-04-03T06:27:10;8.40;53.60
18177;DHT22;9213;50.858;3.964;2023-04-03T06:29:38;8.50;53.10
18177;DHT22;9213;50.858;3.964;2023-04-03T06:32:05;8.70;52.90
18177;DHT22;9213;50.858;3.964;2023-04-03T06:34:32;8.80;52.50
18177;DHT22;9213;50.858;3.964;2023-04-03T06:36:59;8.90;52.20
18177;DHT22;9213;50.858;3.964;2023-04-03T06:39:26;9.00;51.80
18177;DHT22;9213;50.858;3.964;2023-04-03T06:41:55;9.10;51.80
18177;DHT22;9213;50.858;3.964;2023-04-03T06:44:22;9.20;51.50
18177;DHT22;9213;50.858;3.964;2023-04-03T06:46:49;9.30;51.90
18177;DHT22;9213;50.858;3.964;2023-04-03T06:49:17;9.60;52.00
18177;DHT22;9213;50.858;3.964;2023-04-03T06:51:45;10.00;51.10
18177;DHT22;9213;50.858;3.964;2023-04-03T06:54:12;10.40;50.30
18177;DHT22;9213;50.858;3.964;2023-04-03T06:56:40;10.70;49.60
18177;DHT22;9213;50.858;3.964;2023-04-03T06:59:09;11.00;49.10
18177;DHT22;9213;50.858;3.964;2023-04-03T07:01:37;11.40;48.70
18177;DHT22;9213;50.858;3.964;2023-04-03T07:04:04;11.90;47.80
18177;DHT22;9213;50.858;3.964;2023-04-03T07:06:31;12.50;46.50
18177;DHT22;9213;50.858;3.964;2023-04-03T07:08:59;13.00;45.30
18177;DHT22;9213;50.858;3.964;2023-04-03T07:11:26;13.50;44.40
18177;DHT22;9213;50.858;3.964;2023-04-03T07:13:54;14.10;43.40
18177;DHT22;9213;50.858;3.964;2023-04-03T07:16:23;14.90;41.80
18177;DHT22;9213;50.858;3.964;2023-04-03T07:18:50;15.80;39.60
18177;DHT22;9213;50.858;3.964;2023-04-03T07:21:17;16.60;38.10
18177;DHT22;9213;50.858;3.964;2023-04-03T07:23:44;17.30;36.70
18177;DHT22;9213;50.858;3.964;2023-04-03T07:26:11;18.00;35.40
18177;DHT22;9213;50.858;3.964;2023-04-03T07:28:38;18.60;34.30
18177;DHT22;9213;50.858;3.964;2023-04-03T07:31:09;19.10;34.20
18177;DHT22;9213;50.858;3.964;2023-04-03T07:33:39;19.40;33.00
18177;DHT22;9213;50.858;3.964;2023-04-03T07:36:07;19.70;32.10
18177;DHT22;9213;50.858;3.964;2023-04-03T07:38:35;19.90;31.70
18177;DHT22;9213;50.858;3.964;2023-04-03T07:41:03;20.10;31.60
18177;DHT22;9213;50.858;3.964;2023-04-03T07:43:30;20.40;31.50
18177;DHT22;9213;50.858;3.964;2023-04-03T07:45:57;20.60;31.10
18177;DHT22;9213;50.858;3.964;2023-04-03T07:48:26;20.70;30.60
18177;DHT22;9213;50.858;3.964;2023-04-03T07:50:59;20.80;30.60
18177;DHT22;9213;50.858;3.964;2023-04-03T07:53:26;20.90;30.60
18177;DHT22;9213;50.858;3.964;2023-04-03T07:55:53;20.90;30.50
18177;DHT22;9213;50.858;3.964;2023-04-03T07:58:22;21.10;30.10
18177;DHT22;9213;50.858;3.964;2023-04-03T08:00:50;21.30;30.40
18177;DHT22;9213;50.858;3.964;2023-04-03T08:03:17;21.60;29.90
18177;DHT22;9213;50.858;3.964;2023-04-03T08:05:46;21.80;29.50
18177;DHT22;9213;50.858;3.964;2023-04-03T08:08:16;22.00;28.30
18177;DHT22;9213;50.858;3.964;2023-04-03T08:10:45;22.10;27.90
18177;DHT22;9213;50.858;3.964;2023-04-03T08:13:14;22.00;27.90
18177;DHT22;9213;50.858;3.964;2023-04-03T08:15:41;21.80;27.70
18177;DHT22;9213;50.858;3.964;2023-04-03T08:18:08;21.60;27.80
18177;DHT22;9213;50.858;3.964;2023-04-03T08:20:35;21.40;28.20
18177;DHT22;9213;50.858;3.964;2023-04-03T08:23:02;21.20;27.60
18177;DHT22;9213;50.858;3.964;2023-04-03T08:25:30;21.00;27.80
18177;DHT22;9213;50.858;3.964;2023-04-03T08:27:57;20.90;27.80
18177;DHT22;9213;50.858;3.964;2023-04-03T08:30:24;20.80;27.90
18177;DHT22;9213;50.858;3.964;2023-04-03T08:32:51;20.70;27.80
18177;DHT22;9213;50.858;3.964;2023-04-03T08:35:18;20.70;27.90
18177;DHT22;9213;50.858;3.964;2023-04-03T08:37:46;20.70;27.70
18177;DHT22;9213;50.858;3.964;2023-04-03T08:40:15;20.60;27.70
18177;DHT22;9213;50.858;3.964;2023-04-03T08:42:51;20.50;27.90
18177;DHT22;9213;50.858;3.964;2023-04-03T08:45:22;20.40;28.10
18177;DHT22;9213;50.858;3.964;2023-04-03T08:47:55;20.20;28.80
18177;DHT22;9213;50.858;3.964;2023-04-03T08:50:30;20.00;27.90
18177;DHT22;9213;50.858;3.964;2023-04-03T08:52:59;19.90;28.90
18177;DHT22;9213;50.858;3.964;2023-04-03T08:55:29;19.70;28.90
18177;DHT22;9213;50.858;3.964;2023-04-03T08:58:02;19.60;28.70
18177;DHT22;9213;50.858;3.964;2023-04-03T09:00:35;19.40;28.30
18177;DHT22;9213;50.858;3.964;2023-04-03T09:03:04;19.10;29.00
18177;DHT22;9213;50.858;3.964;2023-04-03T09:05:38;18.80;29.60
18177;DHT22;9213;50.858;3.964;2023-04-03T09:08:14;18.60;30.70
18177;DHT22;9213;50.858;3.964;2023-04-03T09:10:45;18.40;31.00
18177;DHT22;9213;50.858;3.964;2023-04-03T09:13:24;18.20;31.50
18177;DHT22;9213;50.858;3.964;2023-04-03T09:15:53;18.10;31.90
18177;DHT22;9213;50.858;3.964;2023-04-03T09:18:23;17.90;31.60
18177;DHT22;9213;50.858;3.964;2023-04-03T09:20:57;17.90;31.90
18177;DHT22;9213;50.858;3.964;2023-04-03T09:23:30;17.80;32.20
18177;DHT22;9213;50.858;3.964;2023-04-03T09:26:02;17.80;32.00
18177;DHT22;9213;50.858;3.964;2023-04-03T09:28:36;17.80;31.80
18177;DHT22;9213;50.858;3.964;2023-04-03T09:31:14;17.80;31.40
18177;DHT22;9213;50.858;3.964;2023-04-03T09:33:43;17.70;31.20
18177;DHT22;9213;50.858;3.964;2023-04-03T09:36:10;17.50;31.60
18177;DHT22;9213;50.858;3.964;2023-04-03T09:38:37;17.40;31.30
18177;DHT22;9213;50.858;3.964;2023-04-03T09:41:07;17.40;31.70
18177;DHT22;9213;50.858;3.964;2023-04-03T09:43:51;17.40;32.10
18177;DHT22;9213;50.858;3.964;2023-04-03T09:46:28;17.40;31.70
18177;DHT22;9213;50.858;3.964;2023-04-03T09:48:57;17.40;31.60
18177;DHT22;9213;50.858;3.964;2023-04-03T09:51:26;17.30;31.50
18177;DHT22;9213;50.858;3.964;2023-04-03T09:53:54;17.30;31.50
18177;DHT22;9213;50.858;3.964;2023-04-03T09:56:25;17.30;31.40
18177;DHT22;9213;50.858;3.964;2023-04-03T09:59:08;17.30;31.50
18177;DHT22;9213;50.858;3.964;2023-04-03T10:01:37;17.30;31.50
18177;DHT22;9213;50.858;3.964;2023-04-03T10:04:09;17.30;31.30
18177;DHT22;9213;50.858;3.964;2023-04-03T10:06:38;17.40;31.40
18177;DHT22;9213;50.858;3.964;2023-04-03T10:09:18;17.40;31.80
18177;DHT22;9213;50.858;3.964;2023-04-03T10:12:01;17.50;31.50
18177;DHT22;9213;50.858;3.964;2023-04-03T10:14:32;17.60;31.80
18177;DHT22;9213;50.858;3.964;2023-04-03T10:17:05;17.60;31.90
18177;DHT22;9213;50.858;3.964;2023-04-03T10:19:41;17.60;31.50
18177;DHT22;9213;50.858;3.964;2023-04-03T10:22:18;17.70;31.10
18177;DHT22;9213;50.858;3.964;2023-04-03T10:24:54;17.70;30.70
18177;DHT22;9213;50.858;3.964;2023-04-03T10:27:34;17.80;30.10
18177;DHT22;9213;50.858;3.964;2023-04-03T10:30:19;18.00;30.40
18177;DHT22;9213;50.858;3.964;2023-04-03T10:32:55;18.00;31.00
18177;DHT22;9213;50.858;3.964;2023-04-03T10:35:42;18.10;30.90
18177;DHT22;9213;50.858;3.964;2023-04-03T10:38:15;18.10;30.90
18177;DHT22;9213;50.858;3.964;2023-04-03T10:40:50;18.10;30.80
18177;DHT22;9213;50.858;3.964;2023-04-03T10:43:28;18.20;31.20
18177;DHT22;9213;50.858;3.964;2023-04-03T10:46:04;18.20;30.60
18177;DHT22;9213;50.858;3.964;2023-04-03T10:48:44;18.30;30.40
18177;DHT22;9213;50.858;3.964;2023-04-03T10:51:24;18.50;30.10
18177;DHT22;9213;50.858;3.964;2023-04-03T10:53:56;18.60;30.50
18177;DHT22;9213;50.858;3.964;2023-04-03T10:56:32;18.80;29.60
18177;DHT22;9213;50.858;3.964;2023-04-03T10:59:13;18.90;29.10
18177;DHT22;9213;50.858;3.964;2023-04-03T11:01:46;18.90;29.50
18177;DHT22;9213;50.858;3.964;2023-04-03T11:04:16;18.90;29.40
18177;DHT22;9213;50.858;3.964;2023-04-03T11:06:50;18.90;29.00
18177;DHT22;9213;50.858;3.964;2023-04-03T11:09:22;19.00;29.10
18177;DHT22;9213;50.858;3.964;2023-04-03T11:11:54;19.00;28.60
18177;DHT22;9213;50.858;3.964;2023-04-03T11:14:26;19.00;27.40
18177;DHT22;9213;50.858;3.964;2023-04-03T11:17:04;19.10;27.60
18177;DHT22;9213;50.858;3.964;2023-04-03T11:19:35;19.10;27.80
18177;DHT22;9213;50.858;3.964;2023-04-03T11:22:11;19.10;27.50
18177;DHT22;9213;50.858;3.964;2023-04-03T11:24:42;19.20;26.80
18177;DHT22;9213;50.858;3.964;2023-04-03T11:27:14;19.20;26.70
18177;DHT22;9213;50.858;3.964;2023-04-03T11:29:43;19.30;26.80
18177;DHT22;9213;50.858;3.964;2023-04-03T11:35:17;19.50;27.70
18177;DHT22;9213;50.858;3.964;2023-04-03T11:37:47;19.50;25.80
18177;DHT22;9213;50.858;3.964;2023-04-03T11:40:26;19.60;26.50
18177;DHT22;9213;50.858;3.964;2023-04-03T11:42:55;19.70;26.50
18177;DHT22;9213;50.858;3.964;2023-04-03T11:45:36;19.70;24.80
18177;DHT22;9213;50.858;3.964;2023-04-03T11:48:05;19.70;24.40
18177;DHT22;9213;50.858;3.964;2023-04-03T11:50:41;19.70;25.30
18177;DHT22;9213;50.858;3.964;2023-04-03T11:53:42;19.70;25.10
18177;DHT22;9213;50.858;3.964;2023-04-03T11:56:27;19.80;26.20
18177;DHT22;9213;50.858;3.964;2023-04-03T11:59:21;19.80;25.50
18177;DHT22;9213;50.858;3.964;2023-04-03T12:01:50;19.80;25.20
18177;DHT22;9213;50.858;3.964;2023-04-03T12:04:20;19.70;25.50
18177;DHT22;9213;50.858;3.964;2023-04-03T12:10:13;19.80;25.20
18177;DHT22;9213;50.858;3.964;2023-04-03T12:12:42;19.90;24.50
18177;DHT22;9213;50.858;3.964;2023-04-03T12:15:24;19.80;24.60
18177;DHT22;9213;50.858;3.964;2023-04-03T12:17:53;19.90;24.10
18177;DHT22;9213;50.858;3.964;2023-04-03T12:20:56;19.90;24.20
18177;DHT22;9213;50.858;3.964;2023-04-03T12:23:26;19.90;24.30
18177;DHT22;9213;50.858;3.964;2023-04-03T12:26:01;19.90;24.30
18177;DHT22;9213;50.858;3.964;2023-04-03T12:28:36;19.90;23.80
18177;DHT22;9213;50.858;3.964;2023-04-03T12:31:05;20.00;24.40
18177;DHT22;9213;50.858;3.964;2023-04-03T12:33:43;20.00;25.40
18177;DHT22;9213;50.858;3.964;2023-04-03T12:36:22;20.20;24.40
18177;DHT22;9213;50.858;3.964;2023-04-03T12:39:03;20.20;23.50
18177;DHT22;9213;50.858;3.964;2023-04-03T12:41:38;20.20;24.90
18177;DHT22;9213;50.858;3.964;2023-04-03T12:44:22;20.20;24.00
18177;DHT22;9213;50.858;3.964;2023-04-03T12:46:52;20.20;24.80
18177;DHT22;9213;50.858;3.964;2023-04-03T12:49:37;20.20;23.90
18177;DHT22;9213;50.858;3.964;2023-04-03T12:52:18;20.20;23.70
18177;DHT22;9213;50.858;3.964;2023-04-03T12:54:46;20.30;24.80
18177;DHT22;9213;50.858;3.964;2023-04-03T12:57:17;20.30;24.40
18177;DHT22;9213;50.858;3.964;2023-04-03T12:59:45;20.40;23.60
18177;DHT22;9213;50.858;3.964;2023-04-03T13:02:20;20.40;23.20
18177;DHT22;9213;50.858;3.964;2023-04-03T13:04:49;20.40;22.70
18177;DHT22;9213;50.858;3.964;2023-04-03T13:07:24;20.40;22.00
18177;DHT22;9213;50.858;3.964;2023-04-03T13:10:03;20.40;22.10
18177;DHT22;9213;50.858;3.964;2023-04-03T13:12:31;20.40;22.60
18177;DHT22;9213;50.858;3.964;2023-04-03T13:15:00;20.40;22.60
18177;DHT22;9213;50.858;3.964;2023-04-03T13:17:30;20.40;21.90
18177;DHT22;9213;50.858;3.964;2023-04-03T13:20:13;20.40;22.20
18177;DHT22;9213;50.858;3.964;2023-04-03T13:22:49;20.40;22.00
18177;DHT22;9213;50.858;3.964;2023-04-03T13:25:18;20.40;21.80
18177;DHT22;9213;50.858;3.964;2023-04-03T13:27:46;20.30;21.20
18177;DHT22;9213;50.858;3.964;2023-04-03T13:30:26;20.30;21.70
18177;DHT22;9213;50.858;3.964;2023-04-03T13:32:54;20.40;21.50
18177;DHT22;9213;50.858;3.964;2023-04-03T13:35:33;20.30;22.20
18177;DHT22;9213;50.858;3.964;2023-04-03T13:38:06;20.40;20.80
18177;DHT22;9213;50.858;3.964;2023-04-03T13:40:33;20.30;20.50
18177;DHT22;9213;50.858;3.964;2023-04-03T13:43:02;20.20;22.30
18177;DHT22;9213;50.858;3.964;2023-04-03T13:45:30;20.20;21.40
18177;DHT22;9213;50.858;3.964;2023-04-03T13:48:16;20.10;20.80
18177;DHT22;9213;50.858;3.964;2023-04-03T13:50:58;20.10;21.40
18177;DHT22;9213;50.858;3.964;2023-04-03T13:53:28;20.00;20.80
18177;DHT22;9213;50.858;3.964;2023-04-03T13:55:59;19.90;20.00
18177;DHT22;9213;50.858;3.964;2023-04-03T13:58:28;19.80;20.00
18177;DHT22;9213;50.858;3.964;2023-04-03T14:01:00;19.70;20.00
18177;DHT22;9213;50.858;3.964;2023-04-03T14:03:31;19.70;21.20
18177;DHT22;9213;50.858;3.964;2023-04-03T14:05:59;19.60;20.00
18177;DHT22;9213;50.858;3.964;2023-04-03T14:08:28;19.50;20.60
18177;DHT22;9213;50.858;3.964;2023-04-03T14:10:55;19.50;20.10
18177;DHT22;9213;50.858;3.964;2023-04-03T14:13:22;19.40;20.20
18177;DHT22;9213;50.858;3.964;2023-04-03T14:15:49;19.30;20.00
18177;DHT22;9213;50.858;3.964;2023-04-03T14:18:19;19.30;19.90
18177;DHT22;9213;50.858;3.964;2023-04-03T14:20:47;19.20;20.10
18177;DHT22;9213;50.858;3.964;2023-04-03T14:23:14;19.10;20.70
18177;DHT22;9213;50.858;3.964;2023-04-03T14:25:43;19.00;21.00
18177;DHT22;9213;50.858;3.964;2023-04-03T14:28:16;19.00;20.90
18177;DHT22;9213;50.858;3.964;2023-04-03T14:30:44;19.00;21.30
18177;DHT22;9213;50.858;3.964;2023-04-03T14:33:16;18.80;20.50
18177;DHT22;9213;50.858;3.964;2023-04-03T14:35:44;18.80;20.30
18177;DHT22;9213;50.858;3.964;2023-04-03T14:38:22;18.70;20.70
18177;DHT22;9213;50.858;3.964;2023-04-03T14:40:52;18.70;21.40
18177;DHT22;9213;50.858;3.964;2023-04-03T14:43:20;18.60;21.00
18177;DHT22;9213;50.858;3.964;2023-04-03T14:45:48;18.50;20.80
18177;DHT22;9213;50.858;3.964;2023-04-03T14:48:19;18.40;21.20
18177;DHT22;9213;50.858;3.964;2023-04-03T14:50:46;18.30;21.90
18177;DHT22;9213;50.858;3.964;2023-04-03T14:53:14;18.20;21.70
18177;DHT22;9213;50.858;3.964;2023-04-03T14:55:44;18.10;21.70
18177;DHT22;9213;50.858;3.964;2023-04-03T14:58:15;18.00;21.40
18177;DHT22;9213;50.858;3.964;2023-04-03T15:00:42;18.00;21.70
18177;DHT22;9213;50.858;3.964;2023-04-03T15:03:14;17.90;21.80
18177;DHT22;9213;50.858;3.964;2023-04-03T15:05:43;17.80;22.00
18177;DHT22;9213;50.858;3.964;2023-04-03T15:08:18;17.80;22.90
18177;DHT22;9213;50.858;3.964;2023-04-03T15:10:45;17.70;21.80
18177;DHT22;9213;50.858;3.964;2023-04-03T15:13:14;17.60;21.90
18177;DHT22;9213;50.858;3.964;2023-04-03T15:15:41;17.50;22.90
18177;DHT22;9213;50.858;3.964;2023-04-03T15:18:15;17.50;23.60
18177;DHT22;9213;50.858;3.964;2023-04-03T15:20:42;17.40;22.60
18177;DHT22;9213;50.858;3.964;2023-04-03T15:23:11;17.30;23.20
18177;DHT22;9213;50.858;3.964;2023-04-03T15:25:39;17.30;22.80
18177;DHT22;9213;50.858;3.964;2023-04-03T15:28:09;17.20;22.60
18177;DHT22;9213;50.858;3.964;2023-04-03T15:30:39;17.20;22.90
18177;DHT22;9213;50.858;3.964;2023-04-03T15:33:06;17.10;23.10
18177;DHT22;9213;50.858;3.964;2023-04-03T15:35:34;17.10;22.80
18177;DHT22;9213;50.858;3.964;2023-04-03T15:38:00;17.00;22.90
18177;DHT22;9213;50.858;3.964;2023-04-03T15:40:27;16.90;22.70
18177;DHT22;9213;50.858;3.964;2023-04-03T15:42:55;16.90;23.20
18177;DHT22;9213;50.858;3.964;2023-04-03T15:45:22;16.80;22.70
18177;DHT22;9213;50.858;3.964;2023-04-03T15:47:50;16.70;22.70
18177;DHT22;9213;50.858;3.964;2023-04-03T15:50:18;16.70;22.90
18177;DHT22;9213;50.858;3.964;2023-04-03T15:52:47;16.60;22.60
18177;DHT22;9213;50.858;3.964;2023-04-03T15:55:19;16.60;22.90
18177;DHT22;9213;50.858;3.964;2023-04-03T15:57:46;16.50;23.50
18177;DHT22;9213;50.858;3.964;2023-04-03T16:00:14;16.50;23.60
18177;DHT22;9213;50.858;3.964;2023-04-03T16:02:41;16.40;22.90
18177;DHT22;9213;50.858;3.964;2023-04-03T16:05:10;16.30;22.60
18177;DHT22;9213;50.858;3.964;2023-04-03T16:07:38;16.30;23.00
18177;DHT22;9213;50.858;3.964;2023-04-03T16:10:07;16.20;23.70
18177;DHT22;9213;50.858;3.964;2023-04-03T16:12:34;16.20;23.10
18177;DHT22;9213;50.858;3.964;2023-04-03T16:15:03;16.10;23.30
18177;DHT22;9213;50.858;3.964;2023-04-03T16:17:31;16.10;22.90